sensor_id;sensor_type;location;lat;lon;timestamp;pressure;altitude;pressure_sealevel;temperature;humidity
44531;BME280;30240;47.418;0.700;2022-11-15T00:01:28;99883.14819335938;;;10.23;94.0
44531;BME280;30240;47.418;0.700;2022-11-15T00:03:54;99878.125;;;10.22;94.18
44531;BME280;30240;47.418;0.700;2022-11-15T00:06:19;99870.95947265625;;;10.23;94.15
44531;BME280;30240;47.418;0.700;2022-11-15T00:08:43;99870.95947265625;;;10.23;94.15
44531;BME280;30240;47.418;0.700;2022-11-15T00:11:10;99866.1376953125;;;10.2;94.29
44531;BME280;30240;47.418;0.700;2022-11-15T00:13:33;99860.17456054688;;;10.19;94.56
44531;BME280;30240;47.418;0.700;2022-11-15T00:15:59;99854.91333007812;;;10.15;94.7
44531;BME280;30240;47.418;0.700;2022-11-15T00:18:24;99844.53735351562;;;10.15;94.95
44531;BME280;30240;47.418;0.700;2022-11-15T00:20:49;99844.53735351562;;;10.15;94.95
44531;BME280;30240;47.418;0.700;2022-11-15T00:23:14;99836.68823242188;;;10.16;94.86
44531;BME280;30240;47.418;0.700;2022-11-15T00:25:39;99830.52978515625;;;10.13;94.98
44531;BME280;30240;47.418;0.700;2022-11-15T00:28:03;99822.00927734375;;;10.13;95.08
44531;BME280;30240;47.418;0.700;2022-11-15T00:30:28;99823.76708984375;;;10.09;95.27
44531;BME280;30240;47.418;0.700;2022-11-15T00:32:54;99814.9169921875;;;10.05;95.46
44531;BME280;30240;47.418;0.700;2022-11-15T00:35:19;99814.9169921875;;;10.05;95.46
44531;BME280;30240;47.418;0.700;2022-11-15T00:37:44;99803.90014648438;;;10.02;95.66
44531;BME280;30240;47.418;0.700;2022-11-15T00:40:09;99801.31225585938;;;9.98;95.76
44531;BME280;30240;47.418;0.700;2022-11-15T00:42:33;99797.68676757812;;;9.95;95.94
44531;BME280;30240;47.418;0.700;2022-11-15T00:44:58;99792.10815429688;;;9.98;96.02
44531;BME280;30240;47.418;0.700;2022-11-15T00:47:23;99792.10815429688;;;9.98;96.02
44531;BME280;30240;47.418;0.700;2022-11-15T00:49:48;99788.26293945312;;;9.92;96.15
44531;BME280;30240;47.418;0.700;2022-11-15T00:52:13;99786.82250976562;;;9.94;96.06
44531;BME280;30240;47.418;0.700;2022-11-15T00:54:38;99786.68212890625;;;9.95;96.08
44531;BME280;30240;47.418;0.700;2022-11-15T00:57:03;99787.90893554688;;;9.98;96.08
44531;BME280;30240;47.418;0.700;2022-11-15T00:59:28;99787.90893554688;;;9.98;96.08
44531;BME280;30240;47.418;0.700;2022-11-15T01:01:53;99777.69775390625;;;10.01;96.11
44531;BME280;30240;47.418;0.700;2022-11-15T01:04:19;99772.54638671875;;;10.02;96.09
44531;BME280;30240;47.418;0.700;2022-11-15T01:06:43;99765.39306640625;;;10.05;96.09
44531;BME280;30240;47.418;0.700;2022-11-15T01:09:09;99757.861328125;;;10.03;96.08
44531;BME280;30240;47.418;0.700;2022-11-15T01:11:33;99757.861328125;;;10.03;96.08
44531;BME280;30240;47.418;0.700;2022-11-15T01:13:58;99752.26440429688;;;10.06;96.07
44531;BME280;30240;47.418;0.700;2022-11-15T01:16:23;99749.35913085938;;;10.02;96.16
44531;BME280;30240;47.418;0.700;2022-11-15T01:18:48;99741.63818359375;;;9.99;96.3
44531;BME280;30240;47.418;0.700;2022-11-15T01:21:16;99740.63110351562;;;9.99;96.47
44531;BME280;30240;47.418;0.700;2022-11-15T01:23:38;99740.63110351562;;;9.99;96.47
44531;BME280;30240;47.418;0.700;2022-11-15T01:26:05;99744.4091796875;;;10.01;96.42
44531;BME280;30240;47.418;0.700;2022-11-15T01:28:30;99738.623046875;;;9.94;96.53
44531;BME280;30240;47.418;0.700;2022-11-15T01:30:56;99742.81005859375;;;9.95;96.58
44531;BME280;30240;47.418;0.700;2022-11-15T01:33:18;99734.53369140625;;;9.95;96.63
44531;BME280;30240;47.418;0.700;2022-11-15T01:35:43;99734.53369140625;;;9.95;96.63
44531;BME280;30240;47.418;0.700;2022-11-15T01:38:08;99730.65795898438;;;9.98;96.63
44531;BME280;30240;47.418;0.700;2022-11-15T01:40:34;99734.09423828125;;;9.91;96.77
44531;BME280;30240;47.418;0.700;2022-11-15T01:42:58;99733.62426757812;;;9.94;96.95
44531;BME280;30240;47.418;0.700;2022-11-15T01:45:23;99722.07641601562;;;9.91;96.98
44531;BME280;30240;47.418;0.700;2022-11-15T01:47:51;99722.07641601562;;;9.91;96.98
44531;BME280;30240;47.418;0.700;2022-11-15T01:50:15;99721.6552734375;;;9.88;97.18
44531;BME280;30240;47.418;0.700;2022-11-15T01:52:39;99719.51293945312;;;9.87;97.28
44531;BME280;30240;47.418;0.700;2022-11-15T01:55:07;99713.44604492188;;;9.88;97.39
44531;BME280;30240;47.418;0.700;2022-11-15T01:57:29;99706.82983398438;;;9.85;97.56
44531;BME280;30240;47.418;0.700;2022-11-15T01:59:54;99706.82983398438;;;9.85;97.56
44531;BME280;30240;47.418;0.700;2022-11-15T02:02:18;99698.18115234375;;;9.8;97.7
44531;BME280;30240;47.418;0.700;2022-11-15T02:04:45;99695.361328125;;;9.81;97.72
44531;BME280;30240;47.418;0.700;2022-11-15T02:07:11;99687.6953125;;;9.74;98.14
44531;BME280;30240;47.418;0.700;2022-11-15T02:09:35;99686.1083984375;;;9.67;98.33
44531;BME280;30240;47.418;0.700;2022-11-15T02:11:59;99676.23291015625;;;9.64;98.52
44531;BME280;30240;47.418;0.700;2022-11-15T02:14:25;99676.23291015625;;;9.64;98.52
44531;BME280;30240;47.418;0.700;2022-11-15T02:16:58;99666.77856445312;;;9.66;98.62
44531;BME280;30240;47.418;0.700;2022-11-15T02:20:09;99663.39111328125;;;9.64;98.78
44531;BME280;30240;47.418;0.700;2022-11-15T02:21:42;99661.49291992188;;;9.63;98.79
44531;BME280;30240;47.418;0.700;2022-11-15T02:24:48;99659.96704101562;;;9.71;98.78
44531;BME280;30240;47.418;0.700;2022-11-15T02:24:58;99659.96704101562;;;9.71;98.78
44531;BME280;30240;47.418;0.700;2022-11-15T02:26:48;99659.96704101562;;;9.71;98.78
44531;BME280;30240;47.418;0.700;2022-11-15T02:26:57;99659.96704101562;;;9.71;98.78
44531;BME280;30240;47.418;0.700;2022-11-15T02:27:16;99659.96704101562;;;9.71;98.78
44531;BME280;30240;47.418;0.700;2022-11-15T02:28:58;99651.416015625;;;9.7;98.67
44531;BME280;30240;47.418;0.700;2022-11-15T02:31:24;99649.658203125;;;9.73;98.78
44531;BME280;30240;47.418;0.700;2022-11-15T02:33:53;99636.10229492188;;;9.71;98.79
44531;BME280;30240;47.418;0.700;2022-11-15T02:33:59;99636.10229492188;;;9.71;98.79
44531;BME280;30240;47.418;0.700;2022-11-15T02:34:05;99636.10229492188;;;9.71;98.79
44531;BME280;30240;47.418;0.700;2022-11-15T02:36:12;99629.93774414062;;;9.73;98.81
44531;BME280;30240;47.418;0.700;2022-11-15T02:38:40;99629.93774414062;;;9.73;98.81
44531;BME280;30240;47.418;0.700;2022-11-15T02:41:02;99619.95239257812;;;9.78;98.74
44531;BME280;30240;47.418;0.700;2022-11-15T02:43:27;99612.1337890625;;;9.82;98.66
44531;BME280;30240;47.418;0.700;2022-11-15T02:45:51;99606.97021484375;;;9.85;98.6
44531;BME280;30240;47.418;0.700;2022-11-15T02:48:14;99605.76782226562;;;9.87;98.47
44531;BME280;30240;47.418;0.700;2022-11-15T02:50:38;99605.76782226562;;;9.87;98.47
44531;BME280;30240;47.418;0.700;2022-11-15T02:53:04;99604.20532226562;;;9.99;98.35
44531;BME280;30240;47.418;0.700;2022-11-15T02:55:30;99604.23583984375;;;10.03;98.05
44531;BME280;30240;47.418;0.700;2022-11-15T02:58:09;99602.18505859375;;;10.09;97.91
44531;BME280;30240;47.418;0.700;2022-11-15T03:00:19;99593.32885742188;;;10.1;97.7
44531;BME280;30240;47.418;0.700;2022-11-15T03:02:52;99593.32885742188;;;10.1;97.7
44531;BME280;30240;47.418;0.700;2022-11-15T03:03:00;99593.32885742188;;;10.1;97.7
44531;BME280;30240;47.418;0.700;2022-11-15T03:03:08;99593.32885742188;;;10.1;97.7
44531;BME280;30240;47.418;0.700;2022-11-15T03:03:16;99593.32885742188;;;10.1;97.7
44531;BME280;30240;47.418;0.700;2022-11-15T03:03:25;99593.32885742188;;;10.1;97.7
44531;BME280;30240;47.418;0.700;2022-11-15T03:05:15;99588.25073242188;;;10.13;97.69
44531;BME280;30240;47.418;0.700;2022-11-15T03:07:37;99579.43725585938;;;10.23;97.6
44531;BME280;30240;47.418;0.700;2022-11-15T03:10:05;99566.56494140625;;;10.25;97.51
44531;BME280;30240;47.418;0.700;2022-11-15T03:12:28;99555.21240234375;;;10.32;97.34
44531;BME280;30240;47.418;0.700;2022-11-15T03:14:52;99555.21240234375;;;10.32;97.34
44531;BME280;30240;47.418;0.700;2022-11-15T03:17:18;99555.09643554688;;;10.41;97.08
44531;BME280;30240;47.418;0.700;2022-11-15T03:17:22;99555.09643554688;;;10.41;97.08
44531;BME280;30240;47.418;0.700;2022-11-15T03:19:43;99540.70434570312;;;10.5;96.67
44531;BME280;30240;47.418;0.700;2022-11-15T03:22:06;99545.22705078125;;;10.6;96.35
44531;BME280;30240;47.418;0.700;2022-11-15T03:24:30;99534.56420898438;;;10.64;96.08
44531;BME280;30240;47.418;0.700;2022-11-15T03:26:54;99534.56420898438;;;10.64;96.08
44531;BME280;30240;47.418;0.700;2022-11-15T03:29:22;99517.82836914062;;;10.63;96.18
44531;BME280;30240;47.418;0.700;2022-11-15T03:31:45;99513.53149414062;;;10.64;96.11
44531;BME280;30240;47.418;0.700;2022-11-15T03:34:11;99511.56005859375;;;10.65;96.0
44531;BME280;30240;47.418;0.700;2022-11-15T03:36:34;99513.2568359375;;;10.75;95.54
44531;BME280;30240;47.418;0.700;2022-11-15T03:39:01;99510.4248046875;;;10.78;95.23
44531;BME280;30240;47.418;0.700;2022-11-15T03:41:27;99510.4248046875;;;10.78;95.23
44531;BME280;30240;47.418;0.700;2022-11-15T03:43:53;99500.36010742188;;;10.84;95.06
44531;BME280;30240;47.418;0.700;2022-11-15T03:46:16;99494.92797851562;;;10.82;94.96
44531;BME280;30240;47.418;0.700;2022-11-15T03:48:42;99489.1845703125;;;10.81;95.03
44531;BME280;30240;47.418;0.700;2022-11-15T03:51:04;99490.49072265625;;;10.81;95.19
44531;BME280;30240;47.418;0.700;2022-11-15T03:53:29;99490.49072265625;;;10.81;95.19
44531;BME280;30240;47.418;0.700;2022-11-15T03:55:53;99485.68725585938;;;10.82;95.19
44531;BME280;30240;47.418;0.700;2022-11-15T03:58:18;99493.896484375;;;10.82;95.03
44531;BME280;30240;47.418;0.700;2022-11-15T04:00:43;99489.7705078125;;;10.85;95.01
44531;BME280;30240;47.418;0.700;2022-11-15T04:03:09;99493.73168945312;;;10.89;94.86
44531;BME280;30240;47.418;0.700;2022-11-15T04:05:34;99493.73168945312;;;10.89;94.86
44531;BME280;30240;47.418;0.700;2022-11-15T04:07:58;99488.36059570312;;;10.92;94.61
44531;BME280;30240;47.418;0.700;2022-11-15T04:10:24;99480.23681640625;;;10.93;94.62
44531;BME280;30240;47.418;0.700;2022-11-15T04:12:49;99479.87670898438;;;10.93;94.66
44531;BME280;30240;47.418;0.700;2022-11-15T04:15:15;99469.921875;;;10.95;94.61
44531;BME280;30240;47.418;0.700;2022-11-15T04:17:40;99469.921875;;;10.95;94.61
44531;BME280;30240;47.418;0.700;2022-11-15T04:20:04;99464.56298828125;;;10.95;94.67
44531;BME280;30240;47.418;0.700;2022-11-15T04:22:28;99458.78295898438;;;10.93;94.84
44531;BME280;30240;47.418;0.700;2022-11-15T04:24:53;99463.83056640625;;;10.93;94.77
44531;BME280;30240;47.418;0.700;2022-11-15T04:27:19;99463.0126953125;;;10.95;94.77
44531;BME280;30240;47.418;0.700;2022-11-15T04:29:43;99463.0126953125;;;10.95;94.77
44531;BME280;30240;47.418;0.700;2022-11-15T04:32:08;99464.54467773438;;;10.93;94.79
44531;BME280;30240;47.418;0.700;2022-11-15T04:34:33;99472.24731445312;;;10.91;94.94
44531;BME280;30240;47.418;0.700;2022-11-15T04:36:59;99466.93115234375;;;10.96;94.79
44531;BME280;30240;47.418;0.700;2022-11-15T04:39:24;99461.02294921875;;;11.02;94.7
44531;BME280;30240;47.418;0.700;2022-11-15T04:41:48;99461.02294921875;;;11.02;94.7
44531;BME280;30240;47.418;0.700;2022-11-15T04:44:14;99464.9658203125;;;10.99;94.83
44531;BME280;30240;47.418;0.700;2022-11-15T04:46:38;99463.17749023438;;;10.96;95.12
44531;BME280;30240;47.418;0.700;2022-11-15T04:49:04;99464.6484375;;;11.02;95.17
44531;BME280;30240;47.418;0.700;2022-11-15T04:51:29;99463.18969726562;;;11.02;95.19
44531;BME280;30240;47.418;0.700;2022-11-15T04:53:53;99463.18969726562;;;11.02;95.19
44531;BME280;30240;47.418;0.700;2022-11-15T04:56:19;99452.001953125;;;11.0;95.43
44531;BME280;30240;47.418;0.700;2022-11-15T04:58:44;99447.68676757812;;;11.06;95.47
44531;BME280;30240;47.418;0.700;2022-11-15T05:01:09;99439.54467773438;;;11.03;95.52
44531;BME280;30240;47.418;0.700;2022-11-15T05:03:33;99429.736328125;;;11.05;95.8
44531;BME280;30240;47.418;0.700;2022-11-15T05:05:58;99429.736328125;;;11.05;95.8
44531;BME280;30240;47.418;0.700;2022-11-15T05:08:23;99422.7783203125;;;11.03;95.87
44531;BME280;30240;47.418;0.700;2022-11-15T05:10:48;99420.59326171875;;;11.02;96.1
44531;BME280;30240;47.418;0.700;2022-11-15T05:13:13;99415.17333984375;;;11.05;96.11
44531;BME280;30240;47.418;0.700;2022-11-15T05:15:38;99415.65551757812;;;11.05;96.29
44531;BME280;30240;47.418;0.700;2022-11-15T05:18:04;99412.12768554688;;;11.05;96.34
44531;BME280;30240;47.418;0.700;2022-11-15T05:20:28;99412.12768554688;;;11.05;96.34
44531;BME280;30240;47.418;0.700;2022-11-15T05:22:54;99400.78735351562;;;11.05;96.48
44531;BME280;30240;47.418;0.700;2022-11-15T05:25:19;99406.82983398438;;;11.08;96.5
44531;BME280;30240;47.418;0.700;2022-11-15T05:27:43;99402.82592773438;;;11.09;96.57
44531;BME280;30240;47.418;0.700;2022-11-15T05:30:09;99399.93896484375;;;11.05;96.66
44531;BME280;30240;47.418;0.700;2022-11-15T05:32:34;99399.93896484375;;;11.05;96.66
44531;BME280;30240;47.418;0.700;2022-11-15T05:34:59;99403.3447265625;;;11.05;96.92
44531;BME280;30240;47.418;0.700;2022-11-15T05:37:23;99397.0703125;;;11.08;96.92
44531;BME280;30240;47.418;0.700;2022-11-15T05:39:48;99399.37744140625;;;11.09;96.8
44531;BME280;30240;47.418;0.700;2022-11-15T05:42:15;99392.98706054688;;;11.03;97.08
44531;BME280;30240;47.418;0.700;2022-11-15T05:44:41;99392.98706054688;;;11.03;97.08
44531;BME280;30240;47.418;0.700;2022-11-15T05:47:05;99392.529296875;;;11.08;97.05
44531;BME280;30240;47.418;0.700;2022-11-15T05:49:31;99384.375;;;11.1;97.05
44531;BME280;30240;47.418;0.700;2022-11-15T05:51:54;99382.39135742188;;;11.13;97.02
44531;BME280;30240;47.418;0.700;2022-11-15T05:54:19;99378.3935546875;;;11.12;97.13
44531;BME280;30240;47.418;0.700;2022-11-15T05:56:43;99378.3935546875;;;11.12;97.13
44531;BME280;30240;47.418;0.700;2022-11-15T05:59:09;99381.18896484375;;;11.1;97.27
44531;BME280;30240;47.418;0.700;2022-11-15T06:01:34;99380.15747070312;;;11.1;97.23
44531;BME280;30240;47.418;0.700;2022-11-15T06:03:58;99371.15478515625;;;11.12;97.21
44531;BME280;30240;47.418;0.700;2022-11-15T06:06:23;99372.17407226562;;;11.12;97.29
44531;BME280;30240;47.418;0.700;2022-11-15T06:08:49;99372.17407226562;;;11.12;97.29
44531;BME280;30240;47.418;0.700;2022-11-15T06:11:14;99368.29833984375;;;11.12;97.3
44531;BME280;30240;47.418;0.700;2022-11-15T06:13:39;99365.81420898438;;;11.1;97.32
44531;BME280;30240;47.418;0.700;2022-11-15T06:16:04;99368.90869140625;;;11.12;97.35
44531;BME280;30240;47.418;0.700;2022-11-15T06:18:31;99368.02978515625;;;11.13;97.3
44531;BME280;30240;47.418;0.700;2022-11-15T06:20:58;99368.02978515625;;;11.13;97.3
44531;BME280;30240;47.418;0.700;2022-11-15T06:23:18;99368.38989257812;;;11.12;97.35
44531;BME280;30240;47.418;0.700;2022-11-15T06:25:44;99355.16967773438;;;11.09;97.53
44531;BME280;30240;47.418;0.700;2022-11-15T06:28:09;99357.89184570312;;;11.09;97.61
44531;BME280;30240;47.418;0.700;2022-11-15T06:30:34;99357.6416015625;;;11.08;97.87
44531;BME280;30240;47.418;0.700;2022-11-15T06:32:59;99357.6416015625;;;11.08;97.87
44531;BME280;30240;47.418;0.700;2022-11-15T06:35:23;99352.81372070312;;;11.05;98.08
44531;BME280;30240;47.418;0.700;2022-11-15T06:37:49;99345.703125;;;11.02;98.28
44531;BME280;30240;47.418;0.700;2022-11-15T06:40:14;99340.20385742188;;;10.99;98.53
44531;BME280;30240;47.418;0.700;2022-11-15T06:42:38;99335.74829101562;;;10.98;98.89
44531;BME280;30240;47.418;0.700;2022-11-15T06:45:04;99336.12670898438;;;10.92;99.04
44531;BME280;30240;47.418;0.700;2022-11-15T06:47:28;99336.12670898438;;;10.92;99.04
44531;BME280;30240;47.418;0.700;2022-11-15T06:49:53;99327.87475585938;;;10.95;99.32
44531;BME280;30240;47.418;0.700;2022-11-15T06:52:19;99323.34594726562;;;10.89;99.54
44531;BME280;30240;47.418;0.700;2022-11-15T06:54:44;99319.20166015625;;;10.84;99.6
44531;BME280;30240;47.418;0.700;2022-11-15T06:57:08;99311.1083984375;;;10.84;99.79
44531;BME280;30240;47.418;0.700;2022-11-15T06:59:34;99311.1083984375;;;10.84;99.79
44531;BME280;30240;47.418;0.700;2022-11-15T07:01:58;99308.50830078125;;;10.81;99.83
44531;BME280;30240;47.418;0.700;2022-11-15T07:04:23;99301.81274414062;;;10.78;99.76
44531;BME280;30240;47.418;0.700;2022-11-15T07:06:48;99296.23413085938;;;10.82;99.74
44531;BME280;30240;47.418;0.700;2022-11-15T07:09:14;99304.41284179688;;;10.84;99.66
44531;BME280;30240;47.418;0.700;2022-11-15T07:11:39;99304.41284179688;;;10.84;99.66
44531;BME280;30240;47.418;0.700;2022-11-15T07:14:03;99309.88159179688;;;10.84;99.51
44531;BME280;30240;47.418;0.700;2022-11-15T07:16:28;99307.72094726562;;;10.88;99.34
44531;BME280;30240;47.418;0.700;2022-11-15T07:18:53;99300.64697265625;;;10.86;99.09
44531;BME280;30240;47.418;0.700;2022-11-15T07:21:18;99301.31225585938;;;10.92;98.9
44531;BME280;30240;47.418;0.700;2022-11-15T07:23:43;99301.31225585938;;;10.92;98.9
44531;BME280;30240;47.418;0.700;2022-11-15T07:26:08;99291.87622070312;;;10.91;98.76
44531;BME280;30240;47.418;0.700;2022-11-15T07:28:34;99296.6064453125;;;10.93;98.71
44531;BME280;30240;47.418;0.700;2022-11-15T07:31:01;99295.15380859375;;;10.91;98.57
44531;BME280;30240;47.418;0.700;2022-11-15T07:33:24;99293.49365234375;;;10.89;98.69
44531;BME280;30240;47.418;0.700;2022-11-15T07:35:49;99293.49365234375;;;10.89;98.69
44531;BME280;30240;47.418;0.700;2022-11-15T07:38:13;99296.47827148438;;;10.92;98.51
44531;BME280;30240;47.418;0.700;2022-11-15T07:40:38;99298.27880859375;;;10.92;98.4
44531;BME280;30240;47.418;0.700;2022-11-15T07:43:05;99302.26440429688;;;10.95;98.17
44531;BME280;30240;47.418;0.700;2022-11-15T07:45:29;99290.90576171875;;;10.93;98.23
44531;BME280;30240;47.418;0.700;2022-11-15T07:47:54;99290.90576171875;;;10.93;98.23
44531;BME280;30240;47.418;0.700;2022-11-15T07:50:19;99293.06030273438;;;10.93;98.22
44531;BME280;30240;47.418;0.700;2022-11-15T07:52:44;99290.88134765625;;;10.96;98.28
44531;BME280;30240;47.418;0.700;2022-11-15T07:55:09;99290.43579101562;;;10.98;98.2
44531;BME280;30240;47.418;0.700;2022-11-15T07:57:33;99291.03393554688;;;10.93;98.32
44531;BME280;30240;47.418;0.700;2022-11-15T07:59:58;99291.03393554688;;;10.93;98.32
44531;BME280;30240;47.418;0.700;2022-11-15T08:02:23;99292.32177734375;;;10.98;98.3
44531;BME280;30240;47.418;0.700;2022-11-15T08:04:48;99285.16235351562;;;10.98;98.17
44531;BME280;30240;47.418;0.700;2022-11-15T08:07:14;99289.68505859375;;;10.98;98.35
44531;BME280;30240;47.418;0.700;2022-11-15T08:09:39;99286.279296875;;;10.95;98.41
44531;BME280;30240;47.418;0.700;2022-11-15T08:12:04;99286.279296875;;;10.95;98.41
44531;BME280;30240;47.418;0.700;2022-11-15T08:14:28;99293.21899414062;;;10.95;98.33
44531;BME280;30240;47.418;0.700;2022-11-15T08:16:54;99292.77954101562;;;10.96;98.62
44531;BME280;30240;47.418;0.700;2022-11-15T08:19:18;99295.12329101562;;;10.93;98.69
44531;BME280;30240;47.418;0.700;2022-11-15T08:21:44;99295.56274414062;;;10.93;98.84
44531;BME280;30240;47.418;0.700;2022-11-15T08:24:09;99295.17211914062;;;10.92;99.08
44531;BME280;30240;47.418;0.700;2022-11-15T08:26:34;99295.17211914062;;;10.92;99.08
44531;BME280;30240;47.418;0.700;2022-11-15T08:28:58;99290.3076171875;;;10.91;99.19
44531;BME280;30240;47.418;0.700;2022-11-15T08:31:23;99290.05737304688;;;10.93;99.41
44531;BME280;30240;47.418;0.700;2022-11-15T08:33:48;99292.07763671875;;;10.91;99.46
44531;BME280;30240;47.418;0.700;2022-11-15T08:36:15;99287.77465820312;;;10.93;99.58
44531;BME280;30240;47.418;0.700;2022-11-15T08:38:38;99287.77465820312;;;10.93;99.58
44531;BME280;30240;47.418;0.700;2022-11-15T08:41:04;99290.81420898438;;;10.96;99.57
44531;BME280;30240;47.418;0.700;2022-11-15T08:43:29;99286.35864257812;;;10.99;99.53
44531;BME280;30240;47.418;0.700;2022-11-15T08:45:55;99276.20239257812;;;11.03;99.42
44531;BME280;30240;47.418;0.700;2022-11-15T08:48:18;99276.20239257812;;;11.02;99.52
44531;BME280;30240;47.418;0.700;2022-11-15T08:50:44;99276.20239257812;;;11.02;99.52
44531;BME280;30240;47.418;0.700;2022-11-15T08:53:09;99271.81396484375;;;11.03;99.59
44531;BME280;30240;47.418;0.700;2022-11-15T08:55:36;99275.5126953125;;;11.02;99.63
44531;BME280;30240;47.418;0.700;2022-11-15T08:57:58;99271.044921875;;;11.0;99.79
44531;BME280;30240;47.418;0.700;2022-11-15T09:00:23;99258.48388671875;;;11.03;99.86
44531;BME280;30240;47.418;0.700;2022-11-15T09:02:48;99258.48388671875;;;11.03;99.86
44531;BME280;30240;47.418;0.700;2022-11-15T09:05:14;99264.95361328125;;;11.06;99.87
44531;BME280;30240;47.418;0.700;2022-11-15T09:07:38;99258.29467773438;;;11.06;99.99
44531;BME280;30240;47.418;0.700;2022-11-15T09:10:04;99255.09643554688;;;11.06;99.95
44531;BME280;30240;47.418;0.700;2022-11-15T09:12:28;99247.74780273438;;;11.15;99.99
44531;BME280;30240;47.418;0.700;2022-11-15T09:14:53;99247.74780273438;;;11.15;99.99
44531;BME280;30240;47.418;0.700;2022-11-15T09:17:18;99248.57788085938;;;11.15;99.99
44531;BME280;30240;47.418;0.700;2022-11-15T09:19:43;99237.78686523438;;;11.17;99.93
44531;BME280;30240;47.418;0.700;2022-11-15T09:22:09;99229.01000976562;;;11.2;99.99
44531;BME280;30240;47.418;0.700;2022-11-15T09:24:34;99219.17114257812;;;11.19;99.99
44531;BME280;30240;47.418;0.700;2022-11-15T09:26:58;99219.17114257812;;;11.19;99.99
44531;BME280;30240;47.418;0.700;2022-11-15T09:29:23;99204.26635742188;;;11.23;99.99
44531;BME280;30240;47.418;0.700;2022-11-15T09:31:51;99194.580078125;;;11.23;99.99
44531;BME280;30240;47.418;0.700;2022-11-15T09:34:14;99183.22143554688;;;11.34;99.99
44531;BME280;30240;47.418;0.700;2022-11-15T09:36:39;99190.4052734375;;;11.33;99.85
44531;BME280;30240;47.418;0.700;2022-11-15T09:39:04;99190.4052734375;;;11.33;99.85
44531;BME280;30240;47.418;0.700;2022-11-15T09:41:38;99198.85864257812;;;11.42;99.5
44531;BME280;30240;47.418;0.700;2022-11-15T09:41:48;99198.85864257812;;;11.42;99.5
44531;BME280;30240;47.418;0.700;2022-11-15T09:43:59;99190.00244140625;;;11.52;99.36
44531;BME280;30240;47.418;0.700;2022-11-15T09:44:07;99190.00244140625;;;11.52;99.36
44531;BME280;30240;47.418;0.700;2022-11-15T09:44:18;99190.00244140625;;;11.52;99.36
44531;BME280;30240;47.418;0.700;2022-11-15T09:46:23;99193.07250976562;;;11.58;99.24
44531;BME280;30240;47.418;0.700;2022-11-15T09:48:49;99191.357421875;;;11.54;99.23
44531;BME280;30240;47.418;0.700;2022-11-15T09:51:13;99191.064453125;;;11.64;99.31
44531;BME280;30240;47.418;0.700;2022-11-15T09:53:36;99191.064453125;;;11.64;99.31
44531;BME280;30240;47.418;0.700;2022-11-15T09:56:00;99192.44384765625;;;11.68;99.11
44531;BME280;30240;47.418;0.700;2022-11-15T09:58:27;99197.96752929688;;;11.68;99.08
44531;BME280;30240;47.418;0.700;2022-11-15T10:00:51;99195.1904296875;;;11.65;99.3
44531;BME280;30240;47.418;0.700;2022-11-15T10:03:15;99199.4384765625;;;11.66;99.43
44531;BME280;30240;47.418;0.700;2022-11-15T10:05:40;99199.4384765625;;;11.66;99.43
44531;BME280;30240;47.418;0.700;2022-11-15T10:08:25;99201.09252929688;;;11.76;99.53
44531;BME280;30240;47.418;0.700;2022-11-15T10:10:32;99197.17407226562;;;11.76;99.3
44531;BME280;30240;47.418;0.700;2022-11-15T10:12:54;99203.99780273438;;;11.76;99.47
44531;BME280;30240;47.418;0.700;2022-11-15T10:15:19;99210.04638671875;;;11.75;99.5
44531;BME280;30240;47.418;0.700;2022-11-15T10:17:54;99210.04638671875;;;11.75;99.5
44531;BME280;30240;47.418;0.700;2022-11-15T10:20:12;99199.4384765625;;;11.76;99.61
44531;BME280;30240;47.418;0.700;2022-11-15T10:22:38;99199.7314453125;;;11.75;99.47
44531;BME280;30240;47.418;0.700;2022-11-15T10:25:13;99198.51684570312;;;11.78;99.61
44531;BME280;30240;47.418;0.700;2022-11-15T10:25:16;99198.51684570312;;;11.78;99.61
44531;BME280;30240;47.418;0.700;2022-11-15T10:27:23;99191.43676757812;;;11.83;99.63
44531;BME280;30240;47.418;0.700;2022-11-15T10:29:50;99191.43676757812;;;11.83;99.63
44531;BME280;30240;47.418;0.700;2022-11-15T10:32:15;99189.76440429688;;;11.79;99.53
44531;BME280;30240;47.418;0.700;2022-11-15T10:34:39;99190.93627929688;;;11.81;99.7
44531;BME280;30240;47.418;0.700;2022-11-15T10:37:04;99181.396484375;;;11.81;99.55
44531;BME280;30240;47.418;0.700;2022-11-15T10:39:29;99172.607421875;;;11.85;99.65
44531;BME280;30240;47.418;0.700;2022-11-15T10:41:54;99172.607421875;;;11.85;99.65
44531;BME280;30240;47.418;0.700;2022-11-15T10:44:22;99174.68872070312;;;11.76;99.62
44531;BME280;30240;47.418;0.700;2022-11-15T10:46:45;99165.1123046875;;;11.82;99.99
44531;BME280;30240;47.418;0.700;2022-11-15T10:49:13;99149.38354492188;;;11.86;99.99
44531;BME280;30240;47.418;0.700;2022-11-15T10:51:42;99143.58520507812;;;11.82;99.96
44531;BME280;30240;47.418;0.700;2022-11-15T10:54:00;99143.58520507812;;;11.82;99.96
44531;BME280;30240;47.418;0.700;2022-11-15T10:56:26;99143.81103515625;;;11.86;99.99
44531;BME280;30240;47.418;0.700;2022-11-15T10:58:51;99143.82934570312;;;11.81;99.99